46.1°F
Current conditions from King Hill
Updated every 5 minutes
 
  Tuesday September 30, 2014

Station Historical Data
Daily Summary for July 14, 2011 Units:  Both    English   Metric
« Previous Day
Next Day »
Daily Weekly Monthly Yearly Custom
  High: Low: Average:
Temperature: 78.3 °F /  25.7 °C 53.1 °F /  11.7 °C 64.6 °F /  18.1 °C
Dew Point: 65.0 °F /  18.3 °C 52.0 °F /  11.1 °C 57.7 °F /  14.3 °C
Humidity: 97% 48% 81%
Wind Speed: 6.0mph /  9.7km/h - 1.8mph /  2.9km/h
Wind Gust: 11.0mph /  17.7km/h - -
Wind- - WSW
Pressure: 30.03 in /  1016.8 hPa 29.89 in /  1012.1 hPa -
Precipitation: 0.01 in /  0.3 mm    
Historical Graphs
 
 
Tabular Data for July 14, 2011
Time Temperature Dew Point Pressure Wind Wind Speed Wind Gust Humidity Daily Rainfall
00:00 58.2 °F /  14.6 °C 57.1 °F /  13.9 °C 29.89in /  1012.1hPa Calm   1.0mph /  1.6km/h 96% 0.62in /  15.7mm
00:05 58.4 °F /  14.7 °C 57.3 °F /  14.1 °C 29.89in /  1012.1hPa Calm   1.0mph /  1.6km/h 96% 0.00in /  0mm
00:10 58.4 °F /  14.7 °C 57.3 °F /  14.1 °C 29.89in /  1012.1hPa Calm   1.0mph /  1.6km/h 96% 0.00in /  0mm
00:15 57.7 °F /  14.3 °C 56.3 °F /  13.5 °C 29.89in /  1012.1hPa Calm   1.0mph /  1.6km/h 95% 0.00in /  0mm
00:20 57.3 °F /  14.1 °C 55.9 °F /  13.3 °C 29.89in /  1012.1hPa Calm   1.0mph /  1.6km/h 95% 0.00in /  0mm
00:25 57.4 °F /  14.1 °C 56.0 °F /  13.3 °C 29.89in /  1012.1hPa Calm   4.0mph /  6.4km/h 95% 0.00in /  0mm
00:30 58.2 °F /  14.6 °C 57.1 °F /  13.9 °C 29.89in /  1012.1hPa NE 2.0mph /  3.2km/h 5.0mph /  8km/h 96% 0.00in /  0mm
00:35 58.6 °F /  14.8 °C 57.5 °F /  14.2 °C 29.89in /  1012.1hPa Calm   5.0mph /  8km/h 96% 0.00in /  0mm
00:40 58.6 °F /  14.8 °C 57.5 °F /  14.2 °C 29.89in /  1012.1hPa Calm   1.0mph /  1.6km/h 96% 0.00in /  0mm
00:45 58.5 °F /  14.7 °C 57.4 °F /  14.1 °C 29.89in /  1012.1hPa Calm   2.0mph /  3.2km/h 96% 0.00in /  0mm
00:50 58.2 °F /  14.6 °C 57.1 °F /  13.9 °C 29.89in /  1012.1hPa Calm   2.0mph /  3.2km/h 96% 0.00in /  0mm
00:55 58.2 °F /  14.6 °C 57.1 °F /  13.9 °C 29.89in /  1012.1hPa NNE 1.0mph /  1.6km/h 3.0mph /  4.8km/h 96% 0.00in /  0mm
01:00 58.5 °F /  14.7 °C 57.4 °F /  14.1 °C 29.90in /  1012.4hPa Calm   3.0mph /  4.8km/h 96% 0.00in /  0mm
01:05 58.7 °F /  14.8 °C 57.6 °F /  14.2 °C 29.89in /  1012.1hPa Calm   3.0mph /  4.8km/h 96% 0.00in /  0mm
01:10 58.6 °F /  14.8 °C 57.5 °F /  14.2 °C 29.89in /  1012.1hPa Calm   3.0mph /  4.8km/h 96% 0.00in /  0mm
01:15 58.6 °F /  14.8 °C 57.5 °F /  14.2 °C 29.89in /  1012.1hPa Calm   1.0mph /  1.6km/h 96% 0.00in /  0mm
01:20 58.6 °F /  14.8 °C 57.5 °F /  14.2 °C 29.89in /  1012.1hPa NNE 1.0mph /  1.6km/h 5.0mph /  8km/h 96% 0.00in /  0mm
01:25 58.7 °F /  14.8 °C 57.6 °F /  14.2 °C 29.89in /  1012.1hPa Calm   5.0mph /  8km/h 96% 0.00in /  0mm
01:30 58.5 °F /  14.7 °C 57.4 °F /  14.1 °C 29.90in /  1012.4hPa Calm   4.0mph /  6.4km/h 96% 0.00in /  0mm
01:35 58.4 °F /  14.7 °C 57.3 °F /  14.1 °C 29.90in /  1012.4hPa Calm   4.0mph /  6.4km/h 96% 0.00in /  0mm
01:40 58.3 °F /  14.6 °C 57.2 °F /  14 °C 29.90in /  1012.4hPa Calm   1.0mph /  1.6km/h 96% 0.00in /  0mm
01:45 58.3 °F /  14.6 °C 57.2 °F /  14 °C 29.90in /  1012.4hPa Calm   2.0mph /  3.2km/h 96% 0.00in /  0mm
01:50 58.2 °F /  14.6 °C 57.1 °F /  13.9 °C 29.90in /  1012.4hPa Calm   3.0mph /  4.8km/h 96% 0.00in /  0mm
01:55 58.2 °F /  14.6 °C 57.1 °F /  13.9 °C 29.90in /  1012.4hPa Calm   3.0mph /  4.8km/h 96% 0.00in /  0mm
02:00 58.0 °F /  14.4 °C 56.9 °F /  13.8 °C 29.90in /  1012.4hPa Calm   3.0mph /  4.8km/h 96% 0.00in /  0mm
02:05 57.8 °F /  14.3 °C 56.7 °F /  13.7 °C 29.90in /  1012.4hPa Calm   2.0mph /  3.2km/h 96% 0.00in /  0mm
02:10 57.7 °F /  14.3 °C 56.6 °F /  13.7 °C 29.90in /  1012.4hPa Calm   2.0mph /  3.2km/h 96% 0.00in /  0mm
02:15 57.5 °F /  14.2 °C 56.4 °F /  13.6 °C 29.90in /  1012.4hPa Calm   2.0mph /  3.2km/h 96% 0.00in /  0mm
02:20 57.1 °F /  13.9 °C 56.0 °F /  13.3 °C 29.90in /  1012.4hPa Calm   2.0mph /  3.2km/h 96% 0.00in /  0mm
02:25 56.7 °F /  13.7 °C 55.6 °F /  13.1 °C 29.90in /  1012.4hPa Calm     96% 0.00in /  0mm
02:30 56.4 °F /  13.6 °C 55.0 °F /  12.8 °C 29.90in /  1012.4hPa Calm     95% 0.00in /  0mm
02:35 56.3 °F /  13.5 °C 55.2 °F /  12.9 °C 29.90in /  1012.4hPa Calm     96% 0.00in /  0mm
02:40 56.1 °F /  13.4 °C 55.0 °F /  12.8 °C 29.90in /  1012.4hPa Calm   1.0mph /  1.6km/h 96% 0.00in /  0mm
02:45 55.8 °F /  13.2 °C 54.4 °F /  12.4 °C 29.90in /  1012.4hPa Calm   1.0mph /  1.6km/h 95% 0.00in /  0mm
02:50 55.4 °F /  13 °C 54.0 °F /  12.2 °C 29.90in /  1012.4hPa Calm     95% 0.00in /  0mm
02:55 55.1 °F /  12.8 °C 53.7 °F /  12.1 °C 29.90in /  1012.4hPa Calm     95% 0.00in /  0mm
03:00 54.9 °F /  12.7 °C 53.5 °F /  11.9 °C 29.91in /  1012.8hPa Calm     95% 0.00in /  0mm
03:05 54.8 °F /  12.7 °C 53.7 °F /  12.1 °C 29.91in /  1012.8hPa Calm     96% 0.00in /  0mm
03:10 54.5 °F /  12.5 °C 53.1 °F /  11.7 °C 29.91in /  1012.8hPa Calm     95% 0.00in /  0mm
03:15 54.5 °F /  12.5 °C 53.1 °F /  11.7 °C 29.91in /  1012.8hPa Calm     95% 0.00in /  0mm
03:20 54.4 °F /  12.4 °C 53.0 °F /  11.7 °C 29.91in /  1012.8hPa Calm     95% 0.00in /  0mm
03:25 54.0 °F /  12.2 °C 52.6 °F /  11.4 °C 29.91in /  1012.8hPa Calm     95% 0.00in /  0mm
03:30 53.8 °F /  12.1 °C 52.4 °F /  11.3 °C 29.91in /  1012.8hPa Calm   1.0mph /  1.6km/h 95% 0.00in /  0mm
03:35 53.9 °F /  12.2 °C 52.8 °F /  11.6 °C 29.91in /  1012.8hPa Calm   1.0mph /  1.6km/h 96% 0.00in /  0mm
03:40 54.4 °F /  12.4 °C 53.3 °F /  11.8 °C 29.91in /  1012.8hPa Calm     96% 0.00in /  0mm
03:45 54.3 °F /  12.4 °C 53.2 °F /  11.8 °C 29.91in /  1012.8hPa Calm     96% 0.00in /  0mm
03:50 54.3 °F /  12.4 °C 53.2 °F /  11.8 °C 29.91in /  1012.8hPa Calm     96% 0.00in /  0mm
03:55 54.0 °F /  12.2 °C 52.9 °F /  11.6 °C 29.91in /  1012.8hPa Calm     96% 0.00in /  0mm
04:00 54.1 °F /  12.3 °C 53.0 °F /  11.7 °C 29.91in /  1012.8hPa Calm     96% 0.00in /  0mm
04:05 54.2 °F /  12.3 °C 53.1 °F /  11.7 °C 29.91in /  1012.8hPa Calm     96% 0.00in /  0mm
04:10 54.0 °F /  12.2 °C 52.9 °F /  11.6 °C 29.91in /  1012.8hPa Calm   1.0mph /  1.6km/h 96% 0.00in /  0mm
04:15 53.9 °F /  12.2 °C 52.8 °F /  11.6 °C 29.92in /  1013.1hPa Calm   1.0mph /  1.6km/h 96% 0.00in /  0mm
04:20 53.6 °F /  12 °C 52.5 °F /  11.4 °C 29.92in /  1013.1hPa Calm     96% 0.00in /  0mm
04:25 53.4 °F /  11.9 °C 52.3 °F /  11.3 °C 29.92in /  1013.1hPa Calm     96% 0.00in /  0mm
04:30 53.3 °F /  11.8 °C 52.2 °F /  11.2 °C 29.92in /  1013.1hPa Calm     96% 0.00in /  0mm
04:35 53.2 °F /  11.8 °C 52.1 °F /  11.2 °C 29.92in /  1013.1hPa Calm     96% 0.00in /  0mm
04:40 53.1 °F /  11.7 °C 52.0 °F /  11.1 °C 29.92in /  1013.1hPa Calm   1.0mph /  1.6km/h 96% 0.00in /  0mm
04:45 53.2 °F /  11.8 °C 52.1 °F /  11.2 °C 29.93in /  1013.4hPa Calm   1.0mph /  1.6km/h 96% 0.00in /  0mm
04:50 53.3 °F /  11.8 °C 52.2 °F /  11.2 °C 29.93in /  1013.4hPa Calm   1.0mph /  1.6km/h 96% 0.00in /  0mm
04:55 53.5 °F /  11.9 °C 52.4 °F /  11.3 °C 29.93in /  1013.4hPa Calm     96% 0.00in /  0mm
05:00 53.7 °F /  12.1 °C 52.6 °F /  11.4 °C 29.93in /  1013.4hPa Calm     96% 0.00in /  0mm
05:05 53.7 °F /  12.1 °C 52.6 °F /  11.4 °C 29.94in /  1013.8hPa Calm     96% 0.00in /  0mm
05:15 53.9 °F /  12.2 °C 52.8 °F /  11.6 °C 29.94in /  1013.8hPa Calm     96% 0.00in /  0mm
05:20 53.6 °F /  12 °C 52.5 °F /  11.4 °C 29.94in /  1013.8hPa Calm     96% 0.00in /  0mm
05:25 53.5 °F /  11.9 °C 52.4 °F /  11.3 °C 29.94in /  1013.8hPa Calm     96% 0.00in /  0mm
05:30 53.6 °F /  12 °C 52.5 °F /  11.4 °C 29.94in /  1013.8hPa Calm     96% 0.00in /  0mm
05:35 53.4 °F /  11.9 °C 52.3 °F /  11.3 °C 29.94in /  1013.8hPa Calm     96% 0.00in /  0mm
05:40 53.1 °F /  11.7 °C 52.0 °F /  11.1 °C 29.95in /  1014.1hPa Calm     96% 0.00in /  0mm
05:45 53.3 °F /  11.8 °C 52.2 °F /  11.2 °C 29.95in /  1014.1hPa Calm     96% 0.00in /  0mm
05:50 53.7 °F /  12.1 °C 52.6 °F /  11.4 °C 29.95in /  1014.1hPa Calm     96% 0.00in /  0mm
05:55 53.8 °F /  12.1 °C 52.7 °F /  11.5 °C 29.95in /  1014.1hPa Calm     96% 0.00in /  0mm
06:00 53.8 °F /  12.1 °C 52.7 °F /  11.5 °C 29.96in /  1014.4hPa Calm     96% 0.00in /  0mm
06:05 53.7 °F /  12.1 °C 52.6 °F /  11.4 °C 29.96in /  1014.4hPa Calm     96% 0.00in /  0mm
06:10 53.5 °F /  11.9 °C 52.4 °F /  11.3 °C 29.96in /  1014.4hPa Calm     96% 0.00in /  0mm
06:15 53.5 °F /  11.9 °C 52.4 °F /  11.3 °C 29.96in /  1014.4hPa Calm     96% 0.00in /  0mm
06:20 53.5 °F /  11.9 °C 52.4 °F /  11.3 °C 29.97in /  1014.8hPa Calm     96% 0.00in /  0mm
06:25 53.9 °F /  12.2 °C 52.8 °F /  11.6 °C 29.97in /  1014.8hPa Calm     96% 0.00in /  0mm
06:30 54.0 °F /  12.2 °C 52.9 °F /  11.6 °C 29.97in /  1014.8hPa Calm     96% 0.00in /  0mm
06:35 54.1 °F /  12.3 °C 53.0 °F /  11.7 °C 29.97in /  1014.8hPa Calm     96% 0.00in /  0mm
06:40 54.1 °F /  12.3 °C 53.0 °F /  11.7 °C 29.97in /  1014.8hPa Calm     96% 0.00in /  0mm
06:45 54.0 °F /  12.2 °C 52.9 °F /  11.6 °C 29.98in /  1015.1hPa Calm     96% 0.00in /  0mm
06:50 54.0 °F /  12.2 °C 52.9 °F /  11.6 °C 29.98in /  1015.1hPa Calm     96% 0.00in /  0mm
06:55 54.1 °F /  12.3 °C 53.0 °F /  11.7 °C 29.98in /  1015.1hPa Calm     96% 0.00in /  0mm
07:00 54.2 °F /  12.3 °C 53.1 °F /  11.7 °C 29.98in /  1015.1hPa Calm     96% 0.00in /  0mm
07:05 54.5 °F /  12.5 °C 53.4 °F /  11.9 °C 29.98in /  1015.1hPa Calm     96% 0.00in /  0mm
07:10 54.9 °F /  12.7 °C 53.8 °F /  12.1 °C 29.98in /  1015.1hPa Calm     96% 0.00in /  0mm
07:15 55.4 °F /  13 °C 54.3 °F /  12.4 °C 29.99in /  1015.5hPa Calm     96% 0.00in /  0mm
07:20 56.0 °F /  13.3 °C 54.9 °F /  12.7 °C 29.99in /  1015.5hPa Calm     96% 0.00in /  0mm
07:25 56.4 °F /  13.6 °C 55.6 °F /  13.1 °C 29.99in /  1015.5hPa Calm     97% 0.01in /  0.3mm
07:30 56.9 °F /  13.8 °C 56.1 °F /  13.4 °C 29.99in /  1015.5hPa Calm     97% 0.01in /  0.3mm
07:35 57.5 °F /  14.2 °C 56.7 °F /  13.7 °C 29.99in /  1015.5hPa Calm     97% 0.01in /  0.3mm
07:40 57.7 °F /  14.3 °C 56.9 °F /  13.8 °C 30.00in /  1015.8hPa Calm     97% 0.01in /  0.3mm
07:45 58.0 °F /  14.4 °C 57.2 °F /  14 °C 30.00in /  1015.8hPa Calm   1.0mph /  1.6km/h 97% 0.01in /  0.3mm
07:50 58.0 °F /  14.4 °C 57.2 °F /  14 °C 30.00in /  1015.8hPa Calm   1.0mph /  1.6km/h 97% 0.01in /  0.3mm
07:55 58.7 °F /  14.8 °C 57.9 °F /  14.4 °C 30.00in /  1015.8hPa Calm   1.0mph /  1.6km/h 97% 0.01in /  0.3mm
08:00 59.5 °F /  15.3 °C 58.6 °F /  14.8 °C 30.00in /  1015.8hPa Calm     97% 0.01in /  0.3mm
08:05 60.0 °F /  15.6 °C 59.1 °F /  15.1 °C 30.00in /  1015.8hPa Calm     97% 0.01in /  0.3mm
08:10 60.5 °F /  15.8 °C 59.6 °F /  15.3 °C 30.01in /  1016.1hPa Calm   1.0mph /  1.6km/h 97% 0.01in /  0.3mm
08:15 60.7 °F /  15.9 °C 59.8 °F /  15.4 °C 30.01in /  1016.1hPa Calm   4.0mph /  6.4km/h 97% 0.01in /  0.3mm
08:20 60.5 °F /  15.8 °C 59.6 °F /  15.3 °C 30.02in /  1016.5hPa NW 2.0mph /  3.2km/h 8.0mph /  12.9km/h 97% 0.01in /  0.3mm
08:25 60.3 °F /  15.7 °C 59.4 °F /  15.2 °C 30.02in /  1016.5hPa WNW 3.0mph /  4.8km/h 9.0mph /  14.5km/h 97% 0.01in /  0.3mm
08:30 60.2 °F /  15.7 °C 59.3 °F /  15.2 °C 30.02in /  1016.5hPa NW 3.0mph /  4.8km/h 9.0mph /  14.5km/h 97% 0.01in /  0.3mm
08:35 60.6 °F /  15.9 °C 59.7 °F /  15.4 °C 30.02in /  1016.5hPa NW 2.0mph /  3.2km/h 9.0mph /  14.5km/h 97% 0.01in /  0.3mm
08:40 61.0 °F /  16.1 °C 59.9 °F /  15.5 °C 30.02in /  1016.5hPa NW 3.0mph /  4.8km/h 6.0mph /  9.7km/h 96% 0.01in /  0.3mm
08:45 61.6 °F /  16.4 °C 60.4 °F /  15.8 °C 30.02in /  1016.5hPa Calm   9.0mph /  14.5km/h 96% 0.01in /  0.3mm
08:50 61.8 °F /  16.6 °C 60.6 °F /  15.9 °C 30.02in /  1016.5hPa Calm   9.0mph /  14.5km/h 96% 0.01in /  0.3mm
08:55 62.0 °F /  16.7 °C 60.6 °F /  15.9 °C 30.02in /  1016.5hPa Calm   8.0mph /  12.9km/h 95% 0.01in /  0.3mm
09:00 62.8 °F /  17.1 °C 61.3 °F /  16.3 °C 30.02in /  1016.5hPa Calm   6.0mph /  9.7km/h 95% 0.01in /  0.3mm
09:05 63.4 °F /  17.4 °C 61.6 °F /  16.4 °C 30.02in /  1016.5hPa Calm   1.0mph /  1.6km/h 94% 0.01in /  0.3mm
09:10 64.0 °F /  17.8 °C 61.9 °F /  16.6 °C 30.02in /  1016.5hPa NW 1.0mph /  1.6km/h 4.0mph /  6.4km/h 93% 0.01in /  0.3mm
09:15 64.9 °F /  18.3 °C 61.9 °F /  16.6 °C 30.03in /  1016.8hPa Calm   4.0mph /  6.4km/h 90% 0.01in /  0.3mm
09:20 65.5 °F /  18.6 °C 61.5 °F /  16.4 °C 30.02in /  1016.5hPa Calm   4.0mph /  6.4km/h 87% 0.01in /  0.3mm
09:25 65.7 °F /  18.7 °C 60.7 °F /  15.9 °C 30.02in /  1016.5hPa Calm   1.0mph /  1.6km/h 84% 0.01in /  0.3mm
09:35 66.5 °F /  19.2 °C 61.5 °F /  16.4 °C 30.02in /  1016.5hPa WNW 1.0mph /  1.6km/h 3.0mph /  4.8km/h 84% 0.01in /  0.3mm
09:40 66.8 °F /  19.3 °C 61.5 °F /  16.4 °C 30.02in /  1016.5hPa Calm   4.0mph /  6.4km/h 83% 0.01in /  0.3mm
09:45 67.4 °F /  19.7 °C 62.4 °F /  16.9 °C 30.02in /  1016.5hPa Calm   4.0mph /  6.4km/h 84% 0.01in /  0.3mm
09:50 68.0 °F /  20 °C 62.0 °F /  16.7 °C 30.02in /  1016.5hPa Calm   1.0mph /  1.6km/h 81% 0.01in /  0.3mm
09:55 68.4 °F /  20.2 °C 62.3 °F /  16.8 °C 30.02in /  1016.5hPa Calm   3.0mph /  4.8km/h 81% 0.01in /  0.3mm
10:00 68.9 °F /  20.5 °C 62.8 °F /  17.1 °C 30.03in /  1016.8hPa Calm   3.0mph /  4.8km/h 81% 0.01in /  0.3mm
10:05 69.5 °F /  20.8 °C 62.7 °F /  17.1 °C 30.02in /  1016.5hPa Calm   1.0mph /  1.6km/h 79% 0.01in /  0.3mm
10:10 69.9 °F /  21.1 °C 62.4 °F /  16.9 °C 30.02in /  1016.5hPa NW 3.0mph /  4.8km/h 7.0mph /  11.3km/h 77% 0.01in /  0.3mm
10:15 69.7 °F /  20.9 °C 62.2 °F /  16.8 °C 30.02in /  1016.5hPa WNW 1.0mph /  1.6km/h 7.0mph /  11.3km/h 77% 0.01in /  0.3mm
10:20 69.5 °F /  20.8 °C 62.0 °F /  16.7 °C 30.02in /  1016.5hPa WNW 1.0mph /  1.6km/h 7.0mph /  11.3km/h 77% 0.01in /  0.3mm
10:25 69.5 °F /  20.8 °C 62.0 °F /  16.7 °C 30.02in /  1016.5hPa Calm   7.0mph /  11.3km/h 77% 0.01in /  0.3mm
10:35 70.6 °F /  21.4 °C 62.3 °F /  16.8 °C 30.02in /  1016.5hPa Calm   5.0mph /  8km/h 75% 0.01in /  0.3mm
10:40 71.4 °F /  21.9 °C 63.4 °F /  17.4 °C 30.02in /  1016.5hPa Calm   3.0mph /  4.8km/h 76% 0.01in /  0.3mm
10:45 72.2 °F /  22.3 °C 65.0 °F /  18.3 °C 30.02in /  1016.5hPa Calm   3.0mph /  4.8km/h 78% 0.01in /  0.3mm
10:50 72.6 °F /  22.6 °C 63.5 °F /  17.5 °C 30.02in /  1016.5hPa Calm   3.0mph /  4.8km/h 73% 0.01in /  0.3mm
10:55 73.1 °F /  22.8 °C 63.1 °F /  17.3 °C 30.02in /  1016.5hPa Calm   3.0mph /  4.8km/h 71% 0.01in /  0.3mm
11:00 73.6 °F /  23.1 °C 62.8 °F /  17.1 °C 30.02in /  1016.5hPa Calm   1.0mph /  1.6km/h 69% 0.01in /  0.3mm
11:05 73.7 °F /  23.2 °C 64.5 °F /  18.1 °C 30.02in /  1016.5hPa NW 1.0mph /  1.6km/h 4.0mph /  6.4km/h 73% 0.01in /  0.3mm
11:10 73.5 °F /  23.1 °C 62.7 °F /  17.1 °C 30.02in /  1016.5hPa Calm   7.0mph /  11.3km/h 69% 0.01in /  0.3mm
11:15 72.6 °F /  22.6 °C 61.4 °F /  16.3 °C 30.02in /  1016.5hPa WNW 3.0mph /  4.8km/h 7.0mph /  11.3km/h 68% 0.01in /  0.3mm
11:25 72.1 °F /  22.3 °C 63.0 °F /  17.2 °C 30.03in /  1016.8hPa Calm   9.0mph /  14.5km/h 73% 0.01in /  0.3mm
11:30 72.4 °F /  22.4 °C 61.3 °F /  16.3 °C 30.02in /  1016.5hPa Calm   6.0mph /  9.7km/h 68% 0.01in /  0.3mm
11:35 73.1 °F /  22.8 °C 62.7 °F /  17.1 °C 30.02in /  1016.5hPa Calm   5.0mph /  8km/h 70% 0.01in /  0.3mm
11:40 73.5 °F /  23.1 °C 62.3 °F /  16.8 °C 30.02in /  1016.5hPa Calm   5.0mph /  8km/h 68% 0.01in /  0.3mm
11:45 73.7 °F /  23.2 °C 62.5 °F /  16.9 °C 30.02in /  1016.5hPa Calm   5.0mph /  8km/h 68% 0.01in /  0.3mm
11:50 74.3 °F /  23.5 °C 60.0 °F /  15.6 °C 30.02in /  1016.5hPa Calm   4.0mph /  6.4km/h 61% 0.01in /  0.3mm
11:55 74.7 °F /  23.7 °C 64.3 °F /  17.9 °C 30.02in /  1016.5hPa NNW 1.0mph /  1.6km/h 6.0mph /  9.7km/h 70% 0.01in /  0.3mm
12:00 74.8 °F /  23.8 °C 60.5 °F /  15.8 °C 30.01in /  1016.1hPa Calm   6.0mph /  9.7km/h 61% 0.01in /  0.3mm
12:05 74.7 °F /  23.7 °C 59.4 °F /  15.2 °C 30.01in /  1016.1hPa Calm   6.0mph /  9.7km/h 59% 0.01in /  0.3mm
12:10 74.8 °F /  23.8 °C 60.9 °F /  16.1 °C 30.01in /  1016.1hPa NNE 2.0mph /  3.2km/h 6.0mph /  9.7km/h 62% 0.01in /  0.3mm
12:15 74.8 °F /  23.8 °C 60.9 °F /  16.1 °C 30.01in /  1016.1hPa NW 3.0mph /  4.8km/h 8.0mph /  12.9km/h 62% 0.01in /  0.3mm
12:20 75.2 °F /  24 °C 62.6 °F /  17 °C 30.01in /  1016.1hPa Calm   8.0mph /  12.9km/h 65% 0.01in /  0.3mm
12:25 75.5 °F /  24.2 °C 61.1 °F /  16.2 °C 30.01in /  1016.1hPa Calm   4.0mph /  6.4km/h 61% 0.01in /  0.3mm
12:30 75.7 °F /  24.3 °C 59.9 °F /  15.5 °C 30.01in /  1016.1hPa NE 1.0mph /  1.6km/h 5.0mph /  8km/h 58% 0.01in /  0.3mm
12:35 75.7 °F /  24.3 °C 59.4 °F /  15.2 °C 30.01in /  1016.1hPa Calm   5.0mph /  8km/h 57% 0.01in /  0.3mm
12:40 75.6 °F /  24.2 °C 57.8 °F /  14.3 °C 30.00in /  1015.8hPa North 2.0mph /  3.2km/h 5.0mph /  8km/h 54% 0.01in /  0.3mm
12:45 75.4 °F /  24.1 °C 60.1 °F /  15.6 °C 30.01in /  1016.1hPa Calm   5.0mph /  8km/h 59% 0.01in /  0.3mm
12:50 75.5 °F /  24.2 °C 61.6 °F /  16.4 °C 30.00in /  1015.8hPa NW 1.0mph /  1.6km/h 5.0mph /  8km/h 62% 0.01in /  0.3mm
12:55 75.5 °F /  24.2 °C 59.7 °F /  15.4 °C 30.00in /  1015.8hPa WNW 4.0mph /  6.4km/h 7.0mph /  11.3km/h 58% 0.01in /  0.3mm
13:00 75.8 °F /  24.3 °C 61.9 °F /  16.6 °C 30.00in /  1015.8hPa Calm   7.0mph /  11.3km/h 62% 0.01in /  0.3mm
13:05 76.1 °F /  24.5 °C 59.8 °F /  15.4 °C 30.00in /  1015.8hPa NW 1.0mph /  1.6km/h 6.0mph /  9.7km/h 57% 0.01in /  0.3mm
13:10 76.3 °F /  24.6 °C 60.0 °F /  15.6 °C 30.00in /  1015.8hPa WNW 1.0mph /  1.6km/h 6.0mph /  9.7km/h 57% 0.01in /  0.3mm
13:15 76.3 °F /  24.6 °C 59.0 °F /  15 °C 30.00in /  1015.8hPa WNW 4.0mph /  6.4km/h 8.0mph /  12.9km/h 55% 0.01in /  0.3mm
13:20 75.8 °F /  24.3 °C 58.5 °F /  14.7 °C 30.00in /  1015.8hPa WNW 6.0mph /  9.7km/h 11.0mph /  17.7km/h 55% 0.01in /  0.3mm
13:25 75.8 °F /  24.3 °C 56.9 °F /  13.8 °C 30.00in /  1015.8hPa Calm   11.0mph /  17.7km/h 52% 0.01in /  0.3mm
13:30 75.8 °F /  24.3 °C 63.2 °F /  17.3 °C 30.00in /  1015.8hPa NW 1.0mph /  1.6km/h 10.0mph /  16.1km/h 65% 0.01in /  0.3mm
13:35 76.3 °F /  24.6 °C 61.4 °F /  16.3 °C 30.00in /  1015.8hPa Calm   7.0mph /  11.3km/h 60% 0.01in /  0.3mm
13:40 76.7 °F /  24.8 °C 59.8 °F /  15.4 °C 30.00in /  1015.8hPa Calm   5.0mph /  8km/h 56% 0.01in /  0.3mm
13:45 76.5 °F /  24.7 °C 57.6 °F /  14.2 °C 30.00in /  1015.8hPa NE 2.0mph /  3.2km/h 7.0mph /  11.3km/h 52% 0.01in /  0.3mm
13:50 76.2 °F /  24.6 °C 61.3 °F /  16.3 °C 29.99in /  1015.5hPa Calm   7.0mph /  11.3km/h 60% 0.01in /  0.3mm
13:55 76.7 °F /  24.8 °C 59.8 °F /  15.4 °C 29.99in /  1015.5hPa Calm   9.0mph /  14.5km/h 56% 0.01in /  0.3mm
14:00 77.0 °F /  25 °C 62.5 °F /  16.9 °C 29.99in /  1015.5hPa NNE 1.0mph /  1.6km/h 9.0mph /  14.5km/h 61% 0.01in /  0.3mm
14:05 76.9 °F /  24.9 °C 62.0 °F /  16.7 °C 29.99in /  1015.5hPa NW 1.0mph /  1.6km/h 6.0mph /  9.7km/h 60% 0.01in /  0.3mm
14:10 77.0 °F /  25 °C 60.6 °F /  15.9 °C 30.00in /  1015.8hPa NW 4.0mph /  6.4km/h 7.0mph /  11.3km/h 57% 0.01in /  0.3mm
14:15 77.2 °F /  25.1 °C 58.8 °F /  14.9 °C 30.00in /  1015.8hPa NE 1.0mph /  1.6km/h 7.0mph /  11.3km/h 53% 0.01in /  0.3mm
14:20 77.1 °F /  25.1 °C 62.6 °F /  17 °C 30.00in /  1015.8hPa Calm   7.0mph /  11.3km/h 61% 0.01in /  0.3mm
14:25 77.0 °F /  25 °C 61.1 °F /  16.2 °C 29.99in /  1015.5hPa NW 2.0mph /  3.2km/h 7.0mph /  11.3km/h 58% 0.01in /  0.3mm
14:30 76.4 °F /  24.7 °C 60.1 °F /  15.6 °C 29.99in /  1015.5hPa Calm   7.0mph /  11.3km/h 57% 0.01in /  0.3mm
14:35 77.1 °F /  25.1 °C 62.6 °F /  17 °C 29.99in /  1015.5hPa Calm   5.0mph /  8km/h 61% 0.01in /  0.3mm
14:40 77.8 °F /  25.4 °C 61.4 °F /  16.3 °C 29.99in /  1015.5hPa NW 1.0mph /  1.6km/h 6.0mph /  9.7km/h 57% 0.01in /  0.3mm
14:45 78.1 °F /  25.6 °C 61.6 °F /  16.4 °C 29.99in /  1015.5hPa NE 1.0mph /  1.6km/h 6.0mph /  9.7km/h 57% 0.01in /  0.3mm
14:50 78.0 °F /  25.6 °C 61.6 °F /  16.4 °C 29.99in /  1015.5hPa Calm   6.0mph /  9.7km/h 57% 0.01in /  0.3mm
14:55 78.2 °F /  25.7 °C 62.2 °F /  16.8 °C 29.99in /  1015.5hPa NW 1.0mph /  1.6km/h 8.0mph /  12.9km/h 58% 0.01in /  0.3mm
15:00 78.0 °F /  25.6 °C 60.5 °F /  15.8 °C 29.99in /  1015.5hPa Calm   8.0mph /  12.9km/h 55% 0.01in /  0.3mm
15:05 77.8 °F /  25.4 °C 60.9 °F /  16.1 °C 29.99in /  1015.5hPa Calm   5.0mph /  8km/h 56% 0.01in /  0.3mm
15:10 77.7 °F /  25.4 °C 63.7 °F /  17.6 °C 29.99in /  1015.5hPa Calm   2.0mph /  3.2km/h 62% 0.01in /  0.3mm
15:20 76.7 °F /  24.8 °C 59.3 °F /  15.2 °C 29.99in /  1015.5hPa Calm   6.0mph /  9.7km/h 55% 0.01in /  0.3mm
15:30 76.1 °F /  24.5 °C 62.2 °F /  16.8 °C 29.99in /  1015.5hPa Calm   6.0mph /  9.7km/h 62% 0.01in /  0.3mm
15:35 75.9 °F /  24.4 °C 59.6 °F /  15.3 °C 29.99in /  1015.5hPa NW 2.0mph /  3.2km/h 7.0mph /  11.3km/h 57% 0.01in /  0.3mm
15:40 75.8 °F /  24.3 °C 61.9 °F /  16.6 °C 29.99in /  1015.5hPa Calm   8.0mph /  12.9km/h 62% 0.01in /  0.3mm
15:45 75.7 °F /  24.3 °C 58.9 °F /  14.9 °C 29.99in /  1015.5hPa NW 3.0mph /  4.8km/h 9.0mph /  14.5km/h 56% 0.01in /  0.3mm
15:50 75.4 °F /  24.1 °C 59.1 °F /  15.1 °C 29.99in /  1015.5hPa NW 3.0mph /  4.8km/h 9.0mph /  14.5km/h 57% 0.01in /  0.3mm
15:55 76.1 °F /  24.5 °C 59.8 °F /  15.4 °C 29.99in /  1015.5hPa NW 2.0mph /  3.2km/h 8.0mph /  12.9km/h 57% 0.01in /  0.3mm
16:00 76.8 °F /  24.9 °C 58.9 °F /  14.9 °C 29.99in /  1015.5hPa NNE 1.0mph /  1.6km/h 7.0mph /  11.3km/h 54% 0.01in /  0.3mm
16:10 76.6 °F /  24.8 °C 60.2 °F /  15.7 °C 29.99in /  1015.5hPa NW 2.0mph /  3.2km/h 8.0mph /  12.9km/h 57% 0.01in /  0.3mm
16:15 77.0 °F /  25 °C 59.6 °F /  15.3 °C 29.99in /  1015.5hPa WNW 4.0mph /  6.4km/h 8.0mph /  12.9km/h 55% 0.01in /  0.3mm
16:20 77.3 °F /  25.2 °C 61.4 °F /  16.3 °C 29.99in /  1015.5hPa NW 1.0mph /  1.6km/h 9.0mph /  14.5km/h 58% 0.01in /  0.3mm
16:25 77.4 °F /  25.2 °C 59.0 °F /  15 °C 29.98in /  1015.1hPa WNW 4.0mph /  6.4km/h 9.0mph /  14.5km/h 53% 0.01in /  0.3mm
16:30 77.3 °F /  25.2 °C 60.4 °F /  15.8 °C 29.99in /  1015.5hPa NW 1.0mph /  1.6km/h 7.0mph /  11.3km/h 56% 0.01in /  0.3mm
16:35 77.3 °F /  25.2 °C 61.4 °F /  16.3 °C 29.98in /  1015.1hPa WNW 3.0mph /  4.8km/h 8.0mph /  12.9km/h 58% 0.01in /  0.3mm
16:40 77.3 °F /  25.2 °C 58.9 °F /  14.9 °C 29.98in /  1015.1hPa NNE 1.0mph /  1.6km/h 8.0mph /  12.9km/h 53% 0.01in /  0.3mm
16:45 77.4 °F /  25.2 °C 57.3 °F /  14.1 °C 29.98in /  1015.1hPa NE 1.0mph /  1.6km/h 6.0mph /  9.7km/h 50% 0.01in /  0.3mm
16:50 77.5 °F /  25.3 °C 60.1 °F /  15.6 °C 29.98in /  1015.1hPa Calm   6.0mph /  9.7km/h 55% 0.01in /  0.3mm
16:55 77.6 °F /  25.3 °C 59.7 °F /  15.4 °C 29.98in /  1015.1hPa NW 1.0mph /  1.6km/h 6.0mph /  9.7km/h 54% 0.01in /  0.3mm
17:05 78.3 °F /  25.7 °C 60.3 °F /  15.7 °C 29.97in /  1014.8hPa WNW 1.0mph /  1.6km/h 5.0mph /  8km/h 54% 0.01in /  0.3mm
17:15 77.7 °F /  25.4 °C 59.2 °F /  15.1 °C 29.97in /  1014.8hPa NW 1.0mph /  1.6km/h 8.0mph /  12.9km/h 53% 0.01in /  0.3mm
17:20 77.9 °F /  25.5 °C 59.4 °F /  15.2 °C 29.97in /  1014.8hPa Calm   6.0mph /  9.7km/h 53% 0.01in /  0.3mm
17:25 77.8 °F /  25.4 °C 58.8 °F /  14.9 °C 29.97in /  1014.8hPa NW 1.0mph /  1.6km/h 6.0mph /  9.7km/h 52% 0.01in /  0.3mm
17:30 77.9 °F /  25.5 °C 58.9 °F /  14.9 °C 29.97in /  1014.8hPa NW 1.0mph /  1.6km/h 6.0mph /  9.7km/h 52% 0.01in /  0.3mm
17:35 77.5 °F /  25.3 °C 56.3 °F /  13.5 °C 29.97in /  1014.8hPa NW 2.0mph /  3.2km/h 10.0mph /  16.1km/h 48% 0.01in /  0.3mm
17:40 77.2 °F /  25.1 °C 58.2 °F /  14.6 °C 29.97in /  1014.8hPa Calm   10.0mph /  16.1km/h 52% 0.01in /  0.3mm
17:55 77.3 °F /  25.2 °C 59.9 °F /  15.5 °C 29.97in /  1014.8hPa NW 2.0mph /  3.2km/h 7.0mph /  11.3km/h 55% 0.01in /  0.3mm
18:05 76.2 °F /  24.6 °C 59.9 °F /  15.5 °C 29.97in /  1014.8hPa Calm   6.0mph /  9.7km/h 57% 0.01in /  0.3mm
18:10 75.6 °F /  24.2 °C 61.2 °F /  16.2 °C 29.96in /  1014.4hPa Calm     61% 0.01in /  0.3mm
18:15 74.6 °F /  23.7 °C 59.3 °F /  15.2 °C 29.96in /  1014.4hPa NNW 1.0mph /  1.6km/h 4.0mph /  6.4km/h 59% 0.01in /  0.3mm
18:20 74.0 °F /  23.3 °C 60.6 °F /  15.9 °C 29.97in /  1014.8hPa Calm   4.0mph /  6.4km/h 63% 0.01in /  0.3mm
18:25 73.4 °F /  23 °C 61.4 °F /  16.3 °C 29.97in /  1014.8hPa Calm   1.0mph /  1.6km/h 66% 0.01in /  0.3mm
18:30 72.8 °F /  22.7 °C 59.9 °F /  15.5 °C 29.97in /  1014.8hPa Calm   1.0mph /  1.6km/h 64% 0.01in /  0.3mm
18:35 72.6 °F /  22.6 °C 61.4 °F /  16.3 °C 29.97in /  1014.8hPa Calm   2.0mph /  3.2km/h 68% 0.01in /  0.3mm
18:40 72.2 °F /  22.3 °C 57.6 °F /  14.2 °C 29.97in /  1014.8hPa Calm   2.0mph /  3.2km/h 60% 0.01in /  0.3mm
18:45 72.2 °F /  22.3 °C 59.4 °F /  15.2 °C 29.97in /  1014.8hPa Calm   1.0mph /  1.6km/h 64% 0.01in /  0.3mm
18:50 72.2 °F /  22.3 °C 59.8 °F /  15.4 °C 29.97in /  1014.8hPa Calm   2.0mph /  3.2km/h 65% 0.01in /  0.3mm
18:55 72.1 °F /  22.3 °C 59.7 °F /  15.4 °C 29.97in /  1014.8hPa Calm   2.0mph /  3.2km/h 65% 0.01in /  0.3mm
19:00 71.9 °F /  22.2 °C 60.8 °F /  16 °C 29.97in /  1014.8hPa Calm     68% 0.01in /  0.3mm
19:05 71.8 °F /  22.1 °C 61.5 °F /  16.4 °C 29.97in /  1014.8hPa Calm     70% 0.01in /  0.3mm
19:10 71.5 °F /  21.9 °C 61.6 °F /  16.4 °C 29.97in /  1014.8hPa Calm     71% 0.01in /  0.3mm
19:15 71.2 °F /  21.8 °C 61.7 °F /  16.5 °C 29.97in /  1014.8hPa Calm     72% 0.01in /  0.3mm
19:25 70.1 °F /  21.2 °C 60.3 °F /  15.7 °C 29.97in /  1014.8hPa Calm     71% 0.01in /  0.3mm
19:30 69.4 °F /  20.8 °C 59.2 °F /  15.1 °C 29.97in /  1014.8hPa Calm   1.0mph /  1.6km/h 70% 0.01in /  0.3mm
19:35 68.8 °F /  20.4 °C 59.8 °F /  15.4 °C 29.97in /  1014.8hPa Calm   1.0mph /  1.6km/h 73% 0.01in /  0.3mm
19:40 68.2 °F /  20.1 °C 58.8 °F /  14.9 °C 29.97in /  1014.8hPa Calm     72% 0.01in /  0.3mm
19:45 67.9 °F /  19.9 °C 59.7 °F /  15.4 °C 29.97in /  1014.8hPa Calm     75% 0.01in /  0.3mm
19:55 67.1 °F /  19.5 °C 59.3 °F /  15.2 °C 29.98in /  1015.1hPa Calm     76% 0.01in /  0.3mm
20:00 66.8 °F /  19.3 °C 58.6 °F /  14.8 °C 29.98in /  1015.1hPa Calm     75% 0.01in /  0.3mm
20:05 66.5 °F /  19.2 °C 59.1 °F /  15.1 °C 29.98in /  1015.1hPa Calm     77% 0.01in /  0.3mm
20:10 66.1 °F /  18.9 °C 58.3 °F /  14.6 °C 29.98in /  1015.1hPa Calm     76% 0.01in /  0.3mm
20:15 65.6 °F /  18.7 °C 58.2 °F /  14.6 °C 29.98in /  1015.1hPa Calm   1.0mph /  1.6km/h 77% 0.01in /  0.3mm
20:20 65.2 °F /  18.4 °C 58.2 °F /  14.6 °C 29.98in /  1015.1hPa Calm   1.0mph /  1.6km/h 78% 0.01in /  0.3mm
20:25 64.8 °F /  18.2 °C 57.4 °F /  14.1 °C 29.98in /  1015.1hPa Calm   1.0mph /  1.6km/h 77% 0.01in /  0.3mm
20:30 64.5 °F /  18.1 °C 57.5 °F /  14.2 °C 29.98in /  1015.1hPa Calm     78% 0.01in /  0.3mm
20:35 64.0 °F /  17.8 °C 57.7 °F /  14.3 °C 29.98in /  1015.1hPa Calm     80% 0.01in /  0.3mm
20:40 63.3 °F /  17.4 °C 57.0 °F /  13.9 °C 29.98in /  1015.1hPa Calm     80% 0.01in /  0.3mm
20:45 62.5 °F /  16.9 °C 56.3 °F /  13.5 °C 29.98in /  1015.1hPa Calm     80% 0.01in /  0.3mm
20:50 62.0 °F /  16.7 °C 56.1 °F /  13.4 °C 29.99in /  1015.5hPa Calm     81% 0.01in /  0.3mm
20:55 61.4 °F /  16.3 °C 55.9 °F /  13.3 °C 29.99in /  1015.5hPa Calm     82% 0.01in /  0.3mm
21:00 60.9 °F /  16.1 °C 55.7 °F /  13.2 °C 29.99in /  1015.5hPa Calm     83% 0.01in /  0.3mm
21:05 60.4 °F /  15.8 °C 55.5 °F /  13.1 °C 29.99in /  1015.5hPa Calm     84% 0.01in /  0.3mm
21:10 59.9 °F /  15.5 °C 55.4 °F /  13 °C 29.99in /  1015.5hPa Calm     85% 0.01in /  0.3mm
21:15 59.5 °F /  15.3 °C 55.0 °F /  12.8 °C 29.99in /  1015.5hPa Calm     85% 0.01in /  0.3mm
21:20 59.0 °F /  15 °C 54.5 °F /  12.5 °C 29.99in /  1015.5hPa Calm     85% 0.01in /  0.3mm
21:25 59.0 °F /  15 °C 54.8 °F /  12.7 °C 29.99in /  1015.5hPa Calm     86% 0.01in /  0.3mm
21:30 58.6 °F /  14.8 °C 54.4 °F /  12.4 °C 30.00in /  1015.8hPa Calm     86% 0.01in /  0.3mm
21:35 58.4 °F /  14.7 °C 54.5 °F /  12.5 °C 30.00in /  1015.8hPa Calm     87% 0.01in /  0.3mm
21:40 58.1 °F /  14.5 °C 54.3 °F /  12.4 °C 30.00in /  1015.8hPa Calm     87% 0.01in /  0.3mm
21:45 57.8 °F /  14.3 °C 54.3 °F /  12.4 °C 30.00in /  1015.8hPa Calm     88% 0.01in /  0.3mm
21:50 57.8 °F /  14.3 °C 54.3 °F /  12.4 °C 30.00in /  1015.8hPa Calm     88% 0.01in /  0.3mm
21:55 57.7 °F /  14.3 °C 54.2 °F /  12.3 °C 30.00in /  1015.8hPa Calm     88% 0.01in /  0.3mm
22:00 57.7 °F /  14.3 °C 54.5 °F /  12.5 °C 30.00in /  1015.8hPa Calm     89% 0.01in /  0.3mm
22:05 57.7 °F /  14.3 °C 54.8 °F /  12.7 °C 30.00in /  1015.8hPa Calm     90% 0.01in /  0.3mm
22:10 57.7 °F /  14.3 °C 54.8 °F /  12.7 °C 30.00in /  1015.8hPa Calm     90% 0.01in /  0.3mm
22:15 57.6 °F /  14.2 °C 54.7 °F /  12.6 °C 30.00in /  1015.8hPa Calm     90% 0.01in /  0.3mm
22:25 57.5 °F /  14.2 °C 54.6 °F /  12.6 °C 30.00in /  1015.8hPa Calm     90% 0.01in /  0.3mm
22:30 57.5 °F /  14.2 °C 54.6 °F /  12.6 °C 30.00in /  1015.8hPa Calm     90% 0.01in /  0.3mm
22:35 57.7 °F /  14.3 °C 54.8 °F /  12.7 °C 30.00in /  1015.8hPa Calm     90% 0.01in /  0.3mm
22:40 58.0 °F /  14.4 °C 55.4 °F /  13 °C 30.00in /  1015.8hPa Calm     91% 0.01in /  0.3mm
22:45 58.3 °F /  14.6 °C 55.7 °F /  13.2 °C 30.00in /  1015.8hPa Calm     91% 0.01in /  0.3mm
22:50 58.7 °F /  14.8 °C 56.4 °F /  13.6 °C 30.00in /  1015.8hPa Calm     92% 0.01in /  0.3mm
22:55 59.0 °F /  15 °C 56.7 °F /  13.7 °C 30.00in /  1015.8hPa Calm     92% 0.01in /  0.3mm
23:00 59.0 °F /  15 °C 56.7 °F /  13.7 °C 30.00in /  1015.8hPa Calm     92% 0.01in /  0.3mm
23:05 59.0 °F /  15 °C 56.7 °F /  13.7 °C 30.00in /  1015.8hPa NNW 1.0mph /  1.6km/h 2.0mph /  3.2km/h 92% 0.01in /  0.3mm
23:10 59.0 °F /  15 °C 56.4 °F /  13.6 °C 30.00in /  1015.8hPa Calm   2.0mph /  3.2km/h 91% 0.01in /  0.3mm
23:15 59.0 °F /  15 °C 56.4 °F /  13.6 °C 30.00in /  1015.8hPa Calm   1.0mph /  1.6km/h 91% 0.01in /  0.3mm
23:20 59.0 °F /  15 °C 56.1 °F /  13.4 °C 30.00in /  1015.8hPa Calm   1.0mph /  1.6km/h 90% 0.01in /  0.3mm
23:25 58.7 °F /  14.8 °C 55.5 °F /  13.1 °C 30.00in /  1015.8hPa Calm     89% 0.01in /  0.3mm
23:30 58.4 °F /  14.7 °C 54.9 °F /  12.7 °C 30.00in /  1015.8hPa Calm   2.0mph /  3.2km/h 88% 0.01in /  0.3mm
23:35 58.2 °F /  14.6 °C 54.7 °F /  12.6 °C 30.00in /  1015.8hPa Calm   2.0mph /  3.2km/h 88% 0.01in /  0.3mm
23:40 58.1 °F /  14.5 °C 54.6 °F /  12.6 °C 30.00in /  1015.8hPa Calm   1.0mph /  1.6km/h 88% 0.01in /  0.3mm
23:45 58.0 °F /  14.4 °C 54.5 °F /  12.5 °C 30.00in /  1015.8hPa Calm   1.0mph /  1.6km/h 88% 0.01in /  0.3mm
23:50 57.8 °F /  14.3 °C 54.3 °F /  12.4 °C 30.00in /  1015.8hPa NNW 1.0mph /  1.6km/h 2.0mph /  3.2km/h 88% 0.01in /  0.3mm
23:55 58.0 °F /  14.4 °C 54.8 °F /  12.7 °C 30.00in /  1015.8hPa Calm   2.0mph /  3.2km/h 89% 0.01in /  0.3mm
Westford Weather
Compliments of Weather Underground

 
 
Current Radar Loop:

Copyright © WestfordWeather.net 2007-2014. All rights reserved.